Etusivu
METAR-TAF:

METAR-TAF

Lentoasemat :

Örnsköldsvik, Ruotsi

Örnsköldsvikin lentoasema

Leveyspiiri: 63-24N, Pituuspiiri: 018-58E, korkeus merenpinnasta: 103 m

Tämänhetkinen sää

Tämä raportti tehtiin 24 minuuttia sitten, kello 07.20 UTC
Tuuli 5 kn pohjoisen/luoteesta
Lämpötila -16°C
Kosteus 78%
Ilmanpaine 1045 hPa
Näkyvyys 10 km tai enemmän

METAR: ESNO 250720Z AUTO 34005KT 9999 NCD M16/M19 Q1045

Aika: 08:44 (07:44 UTC)


TAF: puuttuu

Säähavainnot ja -ennusteet yli 4000 lentoasemalta (METAR- ja TAF-raportit).

Käytössä olevat sääasemat on merkitty karttaan keltaisilla ja punaisilla pisteillä.

Aseta hiiri pisteen päälle nähdäksesi sääaseman nimen.

Klikkaa sitten nähdäksesi säähavainnot ja -ennusteet.

Kartan vaihtaminen: klikkaa mustalla rastilla varustettuja vihreitä pisteitä, niin voit zoomata sisään; viivalla varustettua vihreää pistettä, niin voit zoomata ulos tai vihreitä nuolia, niin pääset viereisille kartoille.


METAR-TAF: